Time;durP1;ratioP1;P1;durP2;ratioP2;P2;SDS_P1;SDS_P2;PMS_P1;PMS_P2;Temp;Humidity;BMP_temperature;BMP_pressure;BME280_temperature;BME280_humidity;BME280_pressure;Samples;Min_cycle;Max_cycle;Signal;HPM_P1;HPM_P2
2021/01/14 00:00:35;;;;;;;16.02;6.15;;;6.00;99.90;;;;;;5023949;28;20071;-73
2021/01/14 00:03:03;;;;;;;20.85;7.43;;;6.00;99.90;;;;;;5024349;28;20367;-73
2021/01/14 00:05:29;;;;;;;15.82;6.28;;;6.00;99.90;;;;;;5022920;28;20470;-73
2021/01/14 00:07:54;;;;;;;17.63;6.45;;;6.00;99.90;;;;;;5017867;28;20040;-73
2021/01/14 00:10:21;;;;;;;19.83;7.30;;;6.00;99.90;;;;;;5017832;28;20411;-73
2021/01/14 00:12:47;;;;;;;14.50;5.47;;;6.00;99.90;;;;;;5018001;28;20076;-73
2021/01/14 00:15:15;;;;;;;17.70;6.60;;;6.10;99.90;;;;;;5021368;28;20061;-73
2021/01/14 00:17:41;;;;;;;20.95;7.03;;;6.10;99.90;;;;;;5017450;28;20076;-73
2021/01/14 00:20:10;;;;;;;16.23;6.57;;;6.10;99.90;;;;;;5015787;28;20064;-73
2021/01/14 00:22:36;;;;;;;23.35;7.40;;;6.10;99.90;;;;;;5019593;28;20074;-73
2021/01/14 00:25:03;;;;;;;13.50;6.38;;;6.10;99.90;;;;;;5019414;28;20026;-73
2021/01/14 00:27:29;;;;;;;15.20;6.75;;;6.10;99.90;;;;;;5018597;28;20102;-72
2021/01/14 00:29:55;;;;;;;16.05;6.60;;;6.00;99.90;;;;;;5020717;28;20026;-72
2021/01/14 00:32:20;;;;;;;19.40;8.82;;;6.00;99.90;;;;;;5016896;28;20449;-72
2021/01/14 00:34:46;;;;;;;18.08;6.78;;;6.00;99.90;;;;;;5017063;28;20041;-72
2021/01/14 00:39:56;;;;;;;14.93;7.40;;;6.00;99.90;;;;;;5019608;28;20025;-72
2021/01/14 00:42:22;;;;;;;28.42;7.03;;;6.00;99.90;;;;;;5019069;28;20179;-72
2021/01/14 00:44:47;;;;;;;19.25;7.80;;;6.00;99.90;;;;;;5022986;28;20534;-72
2021/01/14 00:47:13;;;;;;;20.45;7.22;;;6.00;99.90;;;;;;5023729;28;20084;-74
2021/01/14 00:49:39;;;;;;;17.05;6.40;;;6.00;99.90;;;;;;5023907;28;20446;-73
2021/01/14 00:52:05;;;;;;;15.93;6.32;;;6.00;99.90;;;;;;5018517;28;20025;-73
2021/01/14 00:54:30;;;;;;;19.42;7.45;;;6.00;99.90;;;;;;5022802;28;20025;-72
2021/01/14 00:56:56;;;;;;;19.58;7.22;;;6.10;99.90;;;;;;5022233;28;20045;-73
2021/01/14 00:59:21;;;;;;;22.48;6.93;;;6.10;99.90;;;;;;5022919;28;20018;-72
2021/01/14 01:01:47;;;;;;;16.83;6.95;;;6.10;99.90;;;;;;5020812;28;20029;-72
2021/01/14 01:04:13;;;;;;;24.52;7.65;;;6.10;99.90;;;;;;5020817;28;20029;-73
2021/01/14 01:06:41;;;;;;;30.00;7.90;;;6.10;99.90;;;;;;5019613;28;20049;-72
2021/01/14 01:09:09;;;;;;;20.25;8.27;;;6.10;99.90;;;;;;5012064;28;20025;-72
2021/01/14 01:11:36;;;;;;;19.10;7.90;;;6.10;99.90;;;;;;5015190;28;20132;-73
2021/01/14 01:14:02;;;;;;;12.88;6.60;;;6.10;99.90;;;;;;5018098;28;20529;-73
2021/01/14 01:16:28;;;;;;;25.50;8.23;;;6.10;99.90;;;;;;5019104;28;20033;-72
2021/01/14 01:18:54;;;;;;;22.92;6.85;;;6.10;99.90;;;;;;5014987;28;20022;-73
2021/01/14 01:21:19;;;;;;;13.82;7.05;;;6.10;99.90;;;;;;5018527;28;20832;-72
2021/01/14 01:23:45;;;;;;;17.50;8.52;;;6.10;99.90;;;;;;5019660;28;20172;-73
2021/01/14 01:26:16;;;;;;;25.40;7.38;;;6.10;99.90;;;;;;5021134;28;20045;-73
2021/01/14 01:28:42;;;;;;;14.60;7.88;;;6.10;99.90;;;;;;5018132;28;20092;-73
2021/01/14 01:31:12;;;;;;;28.77;8.65;;;6.00;99.90;;;;;;5027055;28;20436;-73
2021/01/14 01:33:38;;;;;;;18.25;7.80;;;6.10;99.90;;;;;;5019089;28;20518;-73
2021/01/14 01:36:05;;;;;;;19.17;7.32;;;6.10;99.90;;;;;;5020860;28;20178;-73
2021/01/14 01:38:31;;;;;;;21.73;7.50;;;6.10;99.90;;;;;;5017043;28;20026;-73
2021/01/14 01:40:58;;;;;;;23.65;8.93;;;6.10;99.90;;;;;;5021921;28;20037;-73
2021/01/14 01:43:25;;;;;;;19.10;7.55;;;6.10;99.90;;;;;;5019032;28;20041;-72
2021/01/14 01:45:51;;;;;;;23.70;8.77;;;6.10;99.90;;;;;;5020877;28;20478;-72
2021/01/14 01:48:18;;;;;;;19.00;8.05;;;6.00;99.90;;;;;;5028748;28;20022;-72
2021/01/14 01:50:45;;;;;;;25.58;9.52;;;6.00;99.90;;;;;;5019197;28;20036;-72
2021/01/14 01:53:11;;;;;;;23.40;9.80;;;6.00;99.90;;;;;;5019041;28;20147;-73
2021/01/14 01:55:38;;;;;;;32.95;9.65;;;6.00;99.90;;;;;;5021895;28;20359;-72
2021/01/14 01:58:05;;;;;;;20.27;7.43;;;5.90;99.90;;;;;;5031254;28;20167;-72
2021/01/14 02:00:31;;;;;;;10.25;3.05;;;5.80;99.90;;;;;;5026206;28;20592;-73
2021/01/14 02:02:57;;;;;;;12.48;2.60;;;5.70;99.90;;;;;;5022120;28;20079;-72
2021/01/14 02:05:22;;;;;;;14.27;2.58;;;5.60;99.90;;;;;;5023881;28;20096;-73
2021/01/14 02:08:03;;;;;;;13.45;2.67;;;5.50;99.90;;;;;;5028929;28;20033;-72
2021/01/14 02:10:35;;;;;;;12.57;2.10;;;5.50;99.90;;;;;;5024418;28;20520;-72
2021/01/14 02:13:06;;;;;;;9.45;1.92;;;5.50;99.90;;;;;;5023106;28;20030;-72
2021/01/14 02:15:33;;;;;;;10.57;2.28;;;5.60;99.90;;;;;;5022273;28;20132;-72
2021/01/14 02:17:59;;;;;;;12.25;1.95;;;5.50;99.90;;;;;;5020854;28;20041;-72
2021/01/14 02:20:27;;;;;;;10.55;2.47;;;5.50;99.90;;;;;;5027825;28;20037;-72
2021/01/14 02:23:03;;;;;;;7.07;1.60;;;5.50;99.90;;;;;;5029008;28;20540;-73
2021/01/14 02:25:41;;;;;;;15.10;2.17;;;5.50;99.90;;;;;;5015661;28;20025;-73
2021/01/14 02:28:08;;;;;;;10.85;2.30;;;5.40;99.90;;;;;;5023828;28;20025;-72
2021/01/14 02:30:35;;;;;;;7.43;1.67;;;5.30;99.90;;;;;;5025768;28;20038;-72
2021/01/14 02:33:01;;;;;;;9.88;1.60;;;5.20;99.90;;;;;;5025174;28;20022;-72
2021/01/14 02:35:26;;;;;;;9.13;1.65;;;5.10;99.90;;;;;;5026646;28;20027;-72
2021/01/14 02:37:52;;;;;;;9.38;1.50;;;5.00;99.90;;;;;;5026080;28;20065;-72
2021/01/14 02:40:18;;;;;;;10.10;2.00;;;5.00;99.90;;;;;;5020788;28;20026;-72
2021/01/14 02:42:43;;;;;;;12.57;1.83;;;5.10;99.90;;;;;;5022137;28;20087;-72
2021/01/14 02:45:09;;;;;;;8.80;1.70;;;5.10;99.90;;;;;;5029669;28;20037;-72
2021/01/14 02:47:36;;;;;;;8.73;1.60;;;5.10;99.90;;;;;;5030504;28;20080;-72
2021/01/14 02:50:05;;;;;;;7.80;1.35;;;5.20;99.90;;;;;;5021049;28;20122;-72
2021/01/14 02:52:35;;;;;;;7.30;1.70;;;5.20;99.90;;;;;;5019248;28;20049;-72
2021/01/14 02:55:03;;;;;;;7.63;1.42;;;5.20;99.90;;;;;;5026476;28;20141;-72
2021/01/14 02:57:30;;;;;;;12.10;2.78;;;5.20;99.90;;;;;;5027307;28;20082;-72
2021/01/14 02:59:56;;;;;;;15.15;1.83;;;5.20;99.90;;;;;;5026329;28;20505;-72
2021/01/14 03:02:22;;;;;;;5.72;1.40;;;5.20;99.90;;;;;;5029149;28;20034;-72
2021/01/14 03:04:47;;;;;;;10.63;1.52;;;5.10;99.90;;;;;;5025997;28;20032;-72
2021/01/14 03:07:14;;;;;;;13.20;1.70;;;5.20;99.90;;;;;;5027107;28;20037;-73
2021/01/14 03:09:39;;;;;;;9.45;1.67;;;5.20;99.90;;;;;;5030939;28;20521;-72
2021/01/14 03:12:05;;;;;;;8.80;2.20;;;5.20;99.90;;;;;;5028837;28;20089;-72
2021/01/14 03:14:31;;;;;;;9.13;1.40;;;5.20;99.90;;;;;;5025236;28;20441;-72
2021/01/14 03:16:56;;;;;;;12.20;1.50;;;5.20;99.90;;;;;;5019838;28;20046;-72
2021/01/14 03:19:22;;;;;;;6.93;1.55;;;5.10;99.90;;;;;;5022157;28;20026;-72
2021/01/14 03:21:47;;;;;;;13.38;1.50;;;5.10;99.90;;;;;;5023438;28;20034;-72
2021/01/14 03:24:13;;;;;;;7.10;1.60;;;5.10;99.90;;;;;;5024245;28;20064;-73
2021/01/14 03:26:39;;;;;;;10.13;1.75;;;5.10;99.90;;;;;;5028620;28;20026;-72
2021/01/14 03:29:05;;;;;;;6.50;1.20;;;5.10;99.90;;;;;;5026334;28;20029;-72
2021/01/14 03:31:31;;;;;;;8.38;1.52;;;5.00;99.90;;;;;;5022543;28;20026;-72
2021/01/14 03:33:56;;;;;;;15.30;1.60;;;4.90;99.90;;;;;;5023185;28;20025;-72
2021/01/14 03:36:22;;;;;;;14.07;1.40;;;4.90;99.90;;;;;;5021154;28;20504;-72
2021/01/14 03:38:47;;;;;;;10.10;1.27;;;4.90;99.90;;;;;;5021709;28;20108;-72
2021/01/14 03:41:15;;;;;;;11.45;1.52;;;4.90;99.90;;;;;;5025127;28;20025;-72
2021/01/14 03:43:41;;;;;;;8.07;1.95;;;4.90;99.90;;;;;;5026772;28;20026;-73
2021/01/14 03:46:13;;;;;;;11.40;1.35;;;4.90;99.90;;;;;;5035074;28;20026;-72
2021/01/14 03:48:44;;;;;;;6.55;1.55;;;4.90;99.90;;;;;;5025218;28;20474;-72
2021/01/14 03:51:13;;;;;;;13.38;2.13;;;4.90;99.90;;;;;;5023952;28;20040;-72
2021/01/14 03:53:39;;;;;;;7.22;1.25;;;4.90;99.90;;;;;;5028440;28;20090;-72
2021/01/14 03:56:04;;;;;;;14.23;1.88;;;4.80;99.90;;;;;;5022991;28;20042;-72
2021/01/14 03:58:30;;;;;;;8.40;1.77;;;4.80;99.90;;;;;;5019641;28;20114;-72
2021/01/14 04:00:55;;;;;;;9.80;1.48;;;4.80;99.90;;;;;;5033184;28;20091;-72
2021/01/14 04:03:21;;;;;;;8.77;1.38;;;4.70;99.90;;;;;;5026217;28;20057;-72
2021/01/14 04:05:49;;;;;;;13.52;1.63;;;4.80;99.90;;;;;;5024862;28;20100;-72
2021/01/14 04:08:14;;;;;;;11.05;1.70;;;4.70;99.90;;;;;;5026318;28;20017;-72
2021/01/14 04:10:40;;;;;;;9.38;1.58;;;4.60;99.90;;;;;;5023773;28;20486;-73
2021/01/14 04:13:06;;;;;;;8.85;1.83;;;4.70;99.90;;;;;;5026503;28;20026;-72
2021/01/14 04:15:31;;;;;;;11.00;1.60;;;4.70;99.90;;;;;;5029184;28;20041;-72
2021/01/14 04:17:57;;;;;;;13.95;1.73;;;4.70;99.90;;;;;;5021567;28;20029;-72
2021/01/14 04:20:23;;;;;;;10.77;1.30;;;4.70;99.90;;;;;;5027217;28;20469;-72
2021/01/14 04:22:50;;;;;;;11.18;1.42;;;4.70;99.90;;;;;;5031551;28;20101;-72
2021/01/14 04:25:15;;;;;;;7.45;1.40;;;4.70;99.90;;;;;;5022500;28;20030;-72
2021/01/14 04:27:41;;;;;;;5.63;1.65;;;4.70;99.90;;;;;;5026960;28;20207;-72
2021/01/14 04:30:07;;;;;;;13.60;1.67;;;4.70;99.90;;;;;;5023323;28;20070;-72
2021/01/14 04:32:33;;;;;;;10.38;2.00;;;4.60;99.90;;;;;;5028347;28;20038;-72
2021/01/14 04:34:59;;;;;;;9.40;1.73;;;4.70;99.90;;;;;;5025856;28;20026;-72
2021/01/14 04:37:25;;;;;;;12.68;1.55;;;4.60;99.90;;;;;;5025109;28;20491;-72
2021/01/14 04:39:50;;;;;;;6.28;1.33;;;4.60;99.90;;;;;;5019286;28;20095;-72
2021/01/14 04:42:18;;;;;;;10.40;1.63;;;4.70;99.90;;;;;;5022465;28;20424;-72
2021/01/14 04:44:43;;;;;;;9.02;1.65;;;4.70;99.90;;;;;;5024230;28;20029;-72
2021/01/14 04:47:14;;;;;;;9.13;1.50;;;4.80;99.90;;;;;;5029091;28;20044;-73
2021/01/14 04:49:40;;;;;;;11.65;2.03;;;4.70;99.90;;;;;;5022892;28;20056;-73
2021/01/14 04:52:15;;;;;;;10.43;2.47;;;4.80;99.90;;;;;;5028388;28;20076;-73
2021/01/14 04:54:42;;;;;;;10.18;1.30;;;4.80;99.90;;;;;;5027725;28;20482;-73
2021/01/14 04:57:20;;;;;;;11.45;1.63;;;4.80;99.90;;;;;;5026270;28;20037;-72
2021/01/14 04:59:51;;;;;;;4.63;0.88;;;4.70;99.90;;;;;;5020949;28;20038;-73
2021/01/14 05:02:24;;;;;;;8.30;1.55;;;4.70;99.90;;;;;;5030091;28;20060;-72
2021/01/14 05:04:53;;;;;;;12.50;2.10;;;4.70;99.90;;;;;;5028969;28;20473;-72
2021/01/14 05:07:32;;;;;;;9.38;2.15;;;4.60;99.90;;;;;;5029428;28;20029;-72
2021/01/14 05:10:03;;;;;;;8.68;1.73;;;4.60;99.90;;;;;;5029773;28;20025;-73
2021/01/14 05:12:34;;;;;;;10.07;1.58;;;4.60;99.90;;;;;;5027624;28;20026;-72
2021/01/14 05:15:01;;;;;;;11.55;1.63;;;4.60;99.90;;;;;;5028729;28;20029;-72
2021/01/14 05:17:29;;;;;;;10.57;2.17;;;4.60;99.90;;;;;;5024574;28;20117;-73
2021/01/14 05:19:55;;;;;;;10.48;1.70;;;4.60;99.90;;;;;;5023876;28;20470;-73
2021/01/14 05:22:25;;;;;;;12.85;2.10;;;4.60;99.90;;;;;;5025713;28;20097;-72
2021/01/14 05:25:10;;;;;;;9.63;1.55;;;4.60;99.90;;;;;;5028529;28;20041;-73
2021/01/14 05:27:37;;;;;;;8.20;1.48;;;4.60;99.90;;;;;;5022306;28;20474;-72
2021/01/14 05:30:06;;;;;;;10.93;1.70;;;4.60;99.90;;;;;;5029543;28;20033;-73
2021/01/14 05:32:39;;;;;;;8.55;1.40;;;4.50;99.90;;;;;;5025431;28;20017;-73
2021/01/14 05:35:07;;;;;;;9.23;1.70;;;4.60;99.90;;;;;;5026976;28;20026;-72
2021/01/14 05:37:37;;;;;;;7.65;1.52;;;4.60;99.90;;;;;;5023048;28;20014;-72
2021/01/14 05:40:04;;;;;;;9.00;1.40;;;4.60;99.90;;;;;;5033247;28;20061;-72
2021/01/14 05:42:30;;;;;;;12.13;1.77;;;4.60;99.90;;;;;;5019672;28;20478;-72
2021/01/14 05:44:59;;;;;;;15.90;1.85;;;4.70;99.90;;;;;;5031375;28;20033;-73
2021/01/14 05:47:27;;;;;;;6.97;1.95;;;4.60;99.90;;;;;;5017127;28;20017;-72
2021/01/14 05:50:04;;;;;;;9.68;1.75;;;4.60;99.90;;;;;;5028075;28;20068;-72
2021/01/14 05:52:31;;;;;;;5.53;1.40;;;4.50;99.90;;;;;;5023717;28;20017;-73
2021/01/14 05:55:08;;;;;;;7.78;1.73;;;4.50;99.90;;;;;;5025744;28;20176;-72
2021/01/14 05:57:39;;;;;;;7.30;1.65;;;4.50;99.90;;;;;;5024359;28;20106;-72
2021/01/14 06:00:12;;;;;;;8.20;2.13;;;4.40;99.90;;;;;;5031525;28;20112;-72
2021/01/14 06:02:39;;;;;;;9.18;1.70;;;4.40;99.90;;;;;;5031533;28;20386;-72
2021/01/14 06:05:25;;;;;;;10.20;2.13;;;4.40;99.90;;;;;;5024791;28;20025;-72
2021/01/14 06:07:51;;;;;;;17.67;2.40;;;4.30;99.90;;;;;;5023198;28;20021;-72
2021/01/14 06:10:33;;;;;;;15.98;2.67;;;4.30;99.90;;;;;;5031232;28;20022;-73
2021/01/14 06:12:59;;;;;;;6.50;1.85;;;4.30;99.90;;;;;;5029718;28;20029;-72
2021/01/14 06:15:25;;;;;;;6.45;1.92;;;4.30;99.90;;;;;;5024528;28;20053;-72
2021/01/14 06:17:51;;;;;;;9.60;2.50;;;4.20;99.90;;;;;;5021518;28;20028;-72
2021/01/14 06:20:16;;;;;;;10.82;2.33;;;4.30;99.90;;;;;;5018635;28;20061;-73
2021/01/14 06:22:45;;;;;;;10.27;2.45;;;4.20;99.90;;;;;;5021612;28;20033;-72
2021/01/14 06:25:12;;;;;;;9.68;2.50;;;4.20;99.90;;;;;;5028651;28;20057;-72
2021/01/14 06:27:38;;;;;;;10.52;2.10;;;4.20;99.90;;;;;;5021023;28;20049;-72
2021/01/14 06:30:06;;;;;;;10.70;2.03;;;4.30;99.90;;;;;;5026848;28;20087;-73
2021/01/14 06:32:37;;;;;;;7.20;2.30;;;4.20;99.90;;;;;;5026063;28;20025;-72
2021/01/14 06:35:05;;;;;;;6.10;2.03;;;4.20;99.90;;;;;;5026701;28;20056;-72
2021/01/14 06:37:37;;;;;;;9.63;2.45;;;4.20;99.90;;;;;;5023095;28;20084;-72
2021/01/14 06:40:04;;;;;;;10.83;3.00;;;4.20;99.90;;;;;;5018959;28;20493;-72
2021/01/14 06:42:37;;;;;;;14.13;2.15;;;4.20;99.90;;;;;;5029610;28;20699;-72
2021/01/14 06:45:08;;;;;;;11.10;3.20;;;4.20;99.90;;;;;;5029138;28;20037;-72
2021/01/14 06:47:47;;;;;;;15.32;2.63;;;4.20;99.90;;;;;;5025246;28;20052;-72
2021/01/14 06:50:18;;;;;;;10.88;2.88;;;4.20;99.90;;;;;;5024959;28;20113;-72
2021/01/14 06:53:03;;;;;;;10.65;2.65;;;4.10;99.90;;;;;;5023352;28;20040;-72
2021/01/14 06:55:36;;;;;;;9.23;3.10;;;4.10;99.90;;;;;;5032395;28;20049;-72
2021/01/14 06:58:19;;;;;;;22.35;3.90;;;4.10;99.90;;;;;;5029685;28;20030;-72
2021/01/14 07:00:50;;;;;;;12.43;3.10;;;4.10;99.90;;;;;;5026630;28;20021;-73
2021/01/14 07:03:19;;;;;;;10.52;2.85;;;4.10;99.90;;;;;;5030126;28;20022;-73
2021/01/14 07:06:03;;;;;;;14.48;2.65;;;4.10;99.90;;;;;;5031256;28;20022;-73
2021/01/14 07:08:41;;;;;;;7.75;2.30;;;4.00;99.90;;;;;;5020863;28;20037;-73
2021/01/14 07:11:16;;;;;;;14.25;3.10;;;4.00;99.90;;;;;;5029878;28;20485;-73
2021/01/14 07:13:45;;;;;;;8.10;2.33;;;4.00;99.90;;;;;;5023136;28;20079;-73
2021/01/14 07:16:14;;;;;;;10.70;2.70;;;4.10;99.90;;;;;;5031405;28;20033;-72
2021/01/14 07:18:40;;;;;;;7.15;2.30;;;4.10;99.90;;;;;;5024145;28;20041;-72
2021/01/14 07:21:40;;;;;;;7.93;2.45;;;4.10;99.90;;;;;;5024293;28;20068;-72
2021/01/14 07:24:18;;;;;;;8.68;2.20;;;4.10;99.90;;;;;;5027381;28;20129;-72
2021/01/14 07:26:45;;;;;;;12.10;2.67;;;4.10;99.90;;;;;;5027723;28;20096;-72
2021/01/14 07:29:13;;;;;;;7.57;2.15;;;4.10;99.90;;;;;;5026867;28;20018;-72
2021/01/14 07:31:49;;;;;;;13.30;2.60;;;4.10;99.90;;;;;;5030136;28;20022;-72
2021/01/14 07:34:40;;;;;;;10.93;2.53;;;4.10;99.90;;;;;;5028461;28;20026;-73
2021/01/14 07:37:11;;;;;;;9.45;2.22;;;4.10;99.90;;;;;;5028992;28;20044;-73
2021/01/14 07:39:52;;;;;;;11.18;2.67;;;4.00;99.90;;;;;;5019371;28;20028;-72
2021/01/14 07:42:33;;;;;;;9.77;2.15;;;4.10;99.90;;;;;;5027926;28;20030;-72
2021/01/14 07:45:01;;;;;;;10.20;2.45;;;4.00;99.90;;;;;;5023420;28;20366;-72
2021/01/14 07:47:30;;;;;;;8.23;2.17;;;4.00;99.90;;;;;;5025183;28;20045;-72
2021/01/14 07:49:57;;;;;;;7.30;1.90;;;4.10;99.90;;;;;;5024089;28;20036;-72
2021/01/14 07:52:41;;;;;;;11.60;2.88;;;4.00;99.90;;;;;;5027689;28;20038;-72
2021/01/14 07:55:07;;;;;;;8.43;2.47;;;4.00;99.90;;;;;;5024168;28;20841;-72
2021/01/14 07:57:52;;;;;;;5.68;2.13;;;3.90;99.90;;;;;;5001863;28;20029;-72
2021/01/14 08:00:23;;;;;;;6.20;1.60;;;3.90;99.90;;;;;;5032176;28;20033;-72
2021/01/14 08:03:07;;;;;;;7.22;2.28;;;3.90;99.90;;;;;;5028858;28;20375;-72
2021/01/14 08:05:39;;;;;;;17.73;2.80;;;3.90;99.90;;;;;;5028474;28;20038;-72
2021/01/14 08:09:03;;;;;;;5.30;1.85;;;4.00;99.90;;;;;;5037562;28;20024;-72
2021/01/14 08:11:44;;;;;;;7.22;2.42;;;4.00;99.90;;;;;;5025461;28;20446;-73
2021/01/14 08:14:16;;;;;;;16.30;4.63;;;4.10;99.90;;;;;;5033765;28;20033;-72
2021/01/14 08:16:45;;;;;;;13.82;4.28;;;4.10;99.90;;;;;;5033611;28;20041;-73
2021/01/14 08:19:10;;;;;;;9.50;3.35;;;4.10;99.90;;;;;;5032009;28;20030;-73
2021/01/14 08:21:36;;;;;;;16.45;5.18;;;4.10;99.90;;;;;;5030567;28;20388;-72
2021/01/14 08:24:02;;;;;;;10.60;3.13;;;4.20;99.90;;;;;;5032566;28;20360;-72
2021/01/14 08:26:28;;;;;;;22.60;9.20;;;4.10;99.90;;;;;;5030128;28;20615;-72
2021/01/14 08:29:01;;;;;;;22.58;8.05;;;4.10;99.90;;;;;;5022851;28;20033;-72
2021/01/14 08:31:38;;;;;;;;;;;4.10;99.90;;;;;;5031220;28;20025;-72
2021/01/14 08:34:07;;;;;;;8.98;4.07;;;4.10;99.90;;;;;;5031637;28;20300;-72
2021/01/14 08:36:41;;;;;;;15.15;5.55;;;4.20;99.90;;;;;;5025324;28;20117;-72
2021/01/14 08:39:10;;;;;;;10.52;4.55;;;4.30;99.90;;;;;;5027824;28;20056;-72
2021/01/14 08:41:37;;;;;;;12.88;4.20;;;4.30;99.90;;;;;;5025413;28;20043;-72
2021/01/14 08:44:03;;;;;;;17.38;4.93;;;4.30;99.90;;;;;;5020659;28;20034;-73
2021/01/14 08:46:41;;;;;;;11.02;4.30;;;4.30;99.90;;;;;;5029832;28;20118;-73
2021/01/14 08:49:18;;;;;;;13.50;4.35;;;4.30;99.90;;;;;;5031596;28;20053;-72
2021/01/14 08:51:44;;;;;;;16.02;4.45;;;4.30;99.90;;;;;;5034296;28;20481;-72
2021/01/14 08:54:11;;;;;;;11.30;4.80;;;4.30;99.90;;;;;;5031322;28;20018;-73
2021/01/14 08:56:38;;;;;;;21.77;5.60;;;4.40;99.90;;;;;;5020026;28;20124;-72
2021/01/14 08:59:12;;;;;;;16.65;5.72;;;4.40;99.90;;;;;;5028987;28;20038;-72
2021/01/14 09:01:38;;;;;;;15.75;5.53;;;4.30;99.90;;;;;;5027110;28;20026;-72
2021/01/14 09:04:06;;;;;;;22.73;6.68;;;4.30;99.90;;;;;;5030708;28;20037;-72
2021/01/14 09:06:42;;;;;;;17.50;5.97;;;4.30;99.90;;;;;;5027212;28;20029;-72
2021/01/14 09:09:15;;;;;;;13.48;4.05;;;4.40;99.90;;;;;;5028349;28;20026;-73
2021/01/14 09:11:41;;;;;;;10.30;3.92;;;4.40;99.90;;;;;;5032606;28;20115;-73
2021/01/14 09:14:18;;;;;;;10.90;3.88;;;4.40;99.90;;;;;;5024049;28;20096;-73
2021/01/14 09:16:46;;;;;;;18.80;3.70;;;4.40;99.90;;;;;;5023028;28;20051;-73
2021/01/14 09:19:16;;;;;;;10.13;2.65;;;4.40;99.90;;;;;;5025738;28;20545;-72
2021/01/14 09:21:42;;;;;;;12.23;2.78;;;4.30;99.90;;;;;;5024338;28;20056;-72
2021/01/14 09:24:09;;;;;;;11.82;2.78;;;4.30;99.90;;;;;;5030448;28;20067;-72
2021/01/14 09:26:38;;;;;;;10.20;2.60;;;4.30;99.90;;;;;;5027174;28;20033;-72
2021/01/14 09:29:05;;;;;;;10.48;2.80;;;4.30;99.90;;;;;;5033387;28;20492;-72
2021/01/14 09:31:33;;;;;;;8.52;2.10;;;4.30;99.90;;;;;;5028121;28;20021;-73
2021/01/14 09:34:01;;;;;;;11.40;2.53;;;4.40;99.90;;;;;;5028513;28;20039;-72
2021/01/14 09:36:27;;;;;;;12.85;2.33;;;4.30;99.90;;;;;;5029800;28;20029;-72
2021/01/14 09:38:57;;;;;;;7.60;2.20;;;4.30;99.90;;;;;;5022765;28;20026;-72
2021/01/14 09:41:30;;;;;;;10.18;2.75;;;4.30;99.90;;;;;;5031392;28;20021;-72
2021/01/14 09:44:08;;;;;;;8.88;1.70;;;4.40;99.90;;;;;;5028755;28;20103;-72
2021/01/14 09:46:42;;;;;;;10.35;2.38;;;4.30;99.90;;;;;;5029757;28;20051;-72
2021/01/14 09:49:11;;;;;;;12.63;2.08;;;4.20;99.90;;;;;;5028838;28;20037;-72
2021/01/14 09:51:38;;;;;;;10.02;2.38;;;4.10;99.90;;;;;;5030967;28;20018;-74
2021/01/14 09:54:05;;;;;;;8.88;1.90;;;4.20;99.90;;;;;;5020132;28;20040;-73
2021/01/14 09:56:47;;;;;;;16.70;2.78;;;4.30;99.90;;;;;;5032274;28;20087;-75
2021/01/14 09:59:39;;;;;;;7.72;2.20;;;4.20;99.90;;;;;;5031053;28;20438;-75
2021/01/14 10:02:29;;;;;;;13.90;2.45;;;4.20;99.90;;;;;;5028446;28;20040;-75
2021/01/14 10:05:01;;;;;;;11.75;2.28;;;4.30;99.90;;;;;;5031188;28;20513;-75
2021/01/14 10:07:33;;;;;;;9.45;2.85;;;4.40;99.90;;;;;;5028193;28;20018;-75
2021/01/14 10:09:59;;;;;;;16.90;2.97;;;4.40;99.90;;;;;;5028353;28;20013;-75
2021/01/14 10:12:25;;;;;;;12.40;4.00;;;4.30;99.90;;;;;;5030030;28;20136;-75
2021/01/14 10:15:07;;;;;;;15.00;3.42;;;4.30;99.90;;;;;;5022870;28;20116;-74
2021/01/14 10:17:37;;;;;;;7.55;3.53;;;4.30;99.90;;;;;;5026143;28;20053;-75
2021/01/14 10:20:03;;;;;;;12.15;3.90;;;4.30;99.90;;;;;;5023326;28;20017;-75
2021/01/14 10:22:29;;;;;;;9.82;3.30;;;4.40;99.90;;;;;;5027875;28;20022;-74
2021/01/14 10:25:08;;;;;;;9.55;2.70;;;4.40;99.90;;;;;;5028337;28;20042;-74
2021/01/14 10:27:35;;;;;;;14.40;3.28;;;4.40;99.90;;;;;;5025414;28;20034;-74
2021/01/14 10:30:37;;;;;;;8.07;2.97;;;4.40;99.90;;;;;;5031055;28;20037;-74
2021/01/14 10:33:05;;;;;;;11.52;3.15;;;4.40;99.90;;;;;;4999868;28;20545;-76
2021/01/14 10:35:32;;;;;;;11.98;3.42;;;4.40;99.90;;;;;;5026446;28;20206;-74
2021/01/14 10:38:05;;;;;;;9.25;3.55;;;4.50;99.90;;;;;;5030317;28;20017;-74
2021/01/14 10:40:36;;;;;;;9.45;2.58;;;4.50;99.90;;;;;;5030255;28;20498;-74
2021/01/14 10:43:03;;;;;;;7.40;2.28;;;4.50;99.90;;;;;;5034662;28;20059;-74
2021/01/14 10:45:31;;;;;;;9.57;2.35;;;4.40;99.90;;;;;;5030729;28;20033;-73
2021/01/14 10:48:17;;;;;;;12.27;2.60;;;4.40;99.90;;;;;;5033605;28;20021;-73
2021/01/14 10:50:51;;;;;;;8.25;2.65;;;4.50;99.90;;;;;;5033203;28;20047;-73
2021/01/14 10:53:25;;;;;;;8.65;2.65;;;4.50;99.90;;;;;;5033855;28;20463;-72
2021/01/14 10:56:01;;;;;;;12.55;2.75;;;4.60;99.90;;;;;;5030154;28;20490;-73
2021/01/14 10:58:27;;;;;;;12.48;2.67;;;4.40;99.90;;;;;;5022924;28;20045;-73
2021/01/14 11:00:52;;;;;;;10.32;2.67;;;4.50;99.90;;;;;;5021162;28;20030;-73
2021/01/14 11:03:22;;;;;;;10.88;2.80;;;4.60;99.90;;;;;;5026435;28;20474;-73
2021/01/14 11:05:52;;;;;;;7.53;2.50;;;4.50;99.90;;;;;;5030508;28;20028;-73
2021/01/14 11:08:19;;;;;;;21.58;2.90;;;4.50;99.90;;;;;;5026629;28;20079;-74
2021/01/14 11:10:47;;;;;;;12.88;3.20;;;4.50;99.90;;;;;;5028010;28;20040;-76
2021/01/14 11:13:16;;;;;;;8.18;2.47;;;4.60;99.90;;;;;;5026880;28;20026;-78
2021/01/14 11:15:43;;;;;;;28.02;3.20;;;4.60;99.90;;;;;;5021043;28;20043;-73
2021/01/14 11:18:09;;;;;;;10.38;2.63;;;4.50;99.90;;;;;;5017064;28;20100;-73
2021/01/14 11:20:35;;;;;;;10.30;2.67;;;4.60;99.90;;;;;;5030057;28;20032;-73
2021/01/14 11:23:01;;;;;;;5.90;2.42;;;4.70;99.90;;;;;;5023153;28;20022;-72
2021/01/14 11:25:27;;;;;;;7.25;2.30;;;4.60;99.90;;;;;;5025784;28;20620;-75
2021/01/14 11:27:53;;;;;;;8.82;2.72;;;4.70;99.90;;;;;;5019351;28;20049;-73
2021/01/14 11:30:21;;;;;;;8.30;3.20;;;4.70;99.90;;;;;;5022958;28;20026;-74
2021/01/14 11:32:47;;;;;;;10.95;3.05;;;4.80;99.90;;;;;;5030750;28;20103;-74
2021/01/14 11:35:13;;;;;;;13.18;3.33;;;4.70;99.90;;;;;;5026659;28;20469;-73
2021/01/14 11:37:39;;;;;;;9.52;2.97;;;4.70;99.90;;;;;;5025341;28;20033;-76
2021/01/14 11:40:06;;;;;;;8.88;2.45;;;4.70;99.90;;;;;;5030494;28;20092;-75
2021/01/14 11:42:31;;;;;;;13.50;3.00;;;4.80;99.90;;;;;;5029128;28;20424;-74
2021/01/14 11:44:57;;;;;;;11.05;3.00;;;4.80;99.90;;;;;;5022480;28;20022;-74
2021/01/14 11:47:22;;;;;;;14.63;3.10;;;4.70;99.90;;;;;;5023930;28;20474;-73
2021/01/14 11:49:48;;;;;;;11.38;3.20;;;4.70;99.90;;;;;;5029284;28;20025;-78
2021/01/14 11:52:15;;;;;;;8.40;3.00;;;4.60;99.90;;;;;;5027139;28;20025;-77
2021/01/14 11:54:42;;;;;;;10.95;2.80;;;4.60;99.90;;;;;;5032370;28;20021;-75
2021/01/14 11:57:09;;;;;;;10.05;2.78;;;4.60;99.90;;;;;;5029780;28;20029;-77
2021/01/14 11:59:34;;;;;;;8.23;2.70;;;4.40;99.90;;;;;;5030525;28;20025;-76
2021/01/14 12:02:00;;;;;;;10.25;2.35;;;4.50;99.90;;;;;;5025656;28;20037;-77
2021/01/14 12:04:26;;;;;;;7.70;3.10;;;4.50;99.90;;;;;;5018350;28;20356;-77
2021/01/14 12:06:52;;;;;;;12.48;3.38;;;4.40;99.90;;;;;;5033837;28;20032;-74
2021/01/14 12:09:18;;;;;;;9.05;3.10;;;4.40;99.90;;;;;;5033541;28;20029;-75
2021/01/14 12:11:44;;;;;;;9.07;2.72;;;4.50;99.90;;;;;;5034930;28;20040;-77
2021/01/14 12:14:09;;;;;;;6.80;2.28;;;4.50;99.90;;;;;;5033486;28;20029;-76
2021/01/14 12:16:35;;;;;;;7.50;2.95;;;4.50;99.90;;;;;;5032371;28;20045;-76
2021/01/14 12:19:01;;;;;;;11.85;3.47;;;4.50;99.90;;;;;;5032928;28;20100;-75
2021/01/14 12:21:27;;;;;;;7.63;3.00;;;4.60;99.90;;;;;;5033511;28;20370;-76
2021/01/14 12:23:52;;;;;;;7.60;2.80;;;4.50;99.90;;;;;;5032947;28;20036;-76
2021/01/14 12:26:19;;;;;;;7.25;2.65;;;4.50;99.90;;;;;;5025733;28;20045;-76
2021/01/14 12:28:45;;;;;;;7.07;2.83;;;4.50;99.90;;;;;;5034461;28;20100;-76
2021/01/14 12:31:11;;;;;;;11.45;3.05;;;4.50;99.90;;;;;;5027513;28;20100;-76
2021/01/14 12:33:36;;;;;;;7.20;3.03;;;4.50;99.90;;;;;;5030244;28;20031;-77
2021/01/14 12:36:02;;;;;;;10.68;3.08;;;4.60;99.90;;;;;;5027774;28;20045;-77
2021/01/14 12:38:28;;;;;;;10.52;2.72;;;4.60;99.90;;;;;;5028303;28;20026;-76
2021/01/14 12:40:53;;;;;;;8.23;3.88;;;4.60;99.90;;;;;;5025158;28;20038;-76
2021/01/14 12:43:19;;;;;;;9.30;3.22;;;4.60;99.90;;;;;;5027463;28;20036;-76
2021/01/14 12:45:44;;;;;;;9.52;3.20;;;4.50;99.90;;;;;;5035104;28;20029;-74
2021/01/14 12:48:10;;;;;;;10.88;3.70;;;4.60;99.90;;;;;;5025138;28;20029;-75
2021/01/14 12:50:35;;;;;;;11.45;3.30;;;4.50;99.90;;;;;;5025684;28;20710;-75
2021/01/14 12:53:01;;;;;;;8.95;3.30;;;4.50;99.90;;;;;;5028047;28;20022;-76
2021/01/14 12:55:27;;;;;;;10.07;3.10;;;4.60;99.90;;;;;;5028509;28;20022;-76
2021/01/14 12:57:52;;;;;;;6.30;3.20;;;4.50;99.90;;;;;;5024791;28;20043;-76
2021/01/14 13:00:18;;;;;;;10.52;3.00;;;4.50;99.90;;;;;;5026580;28;20112;-77
2021/01/14 13:02:44;;;;;;;8.77;3.08;;;4.50;99.90;;;;;;5028915;28;20033;-76